Time;durP1;ratioP1;P1;durP2;ratioP2;P2;SDS_P1;SDS_P2;PMS_P1;PMS_P2;Temp;Humidity;BMP_temperature;BMP_pressure;BME280_temperature;BME280_humidity;BME280_pressure;Samples;Min_cycle;Max_cycle;Signal;HPM_P1;HPM_P2
2023/06/06 00:00:15;;;;;;;21.42;8.63;;;;;;;14.34;100.00;101886.00;5053035;28;20112;-69
2023/06/06 00:02:42;;;;;;;20.92;8.70;;;;;;;14.37;100.00;101894.00;5052900;28;20029;-68
2023/06/06 00:05:08;;;;;;;21.33;8.60;;;;;;;14.29;100.00;101891.28;5053282;28;20032;-65
2023/06/06 00:07:34;;;;;;;21.88;8.90;;;;;;;14.21;100.00;101890.34;5052376;28;20029;-66
2023/06/06 00:10:00;;;;;;;22.17;8.73;;;;;;;14.20;100.00;101884.16;5049977;28;20029;-68
2023/06/06 00:12:25;;;;;;;21.42;8.82;;;;;;;14.08;100.00;101884.97;5052934;28;20036;-67
2023/06/06 00:14:51;;;;;;;21.40;8.77;;;;;;;13.95;100.00;101884.00;5049295;28;20129;-67
2023/06/06 00:17:17;;;;;;;22.25;8.52;;;;;;;13.99;100.00;101879.56;5052605;28;20041;-66
2023/06/06 00:19:42;;;;;;;21.27;8.57;;;;;;;14.02;100.00;101886.69;5052681;28;20033;-71
2023/06/06 00:22:09;;;;;;;22.10;8.90;;;;;;;14.08;100.00;101884.97;5053325;28;20059;-71
2023/06/06 00:24:34;;;;;;;21.35;9.15;;;;;;;14.03;100.00;101877.84;5052772;28;20094;-73
2023/06/06 00:27:00;;;;;;;21.40;8.70;;;;;;;13.92;100.00;101883.97;5052459;28;20452;-72
2023/06/06 00:29:25;;;;;;;23.17;9.00;;;;;;;13.85;100.00;101886.56;5052106;28;20050;-69
2023/06/06 00:31:50;;;;;;;21.73;8.65;;;;;;;13.84;100.00;101893.66;5052486;28;20029;-72
2023/06/06 00:34:16;;;;;;;21.45;8.77;;;;;;;13.80;100.00;101890.97;5054689;28;20072;-69
2023/06/06 00:36:41;;;;;;;20.98;8.20;;;;;;;13.79;100.00;101887.44;5051698;28;20057;-69
2023/06/06 00:39:07;;;;;;;21.63;8.68;;;;;;;13.77;100.00;101884.78;5052546;28;20514;-73
2023/06/06 00:41:32;;;;;;;21.63;9.10;;;;;;;13.74;100.00;101886.50;5052017;28;20041;-67
2023/06/06 00:43:57;;;;;;;22.17;8.93;;;;;;;13.68;100.00;101889.09;5052224;28;20029;-68
2023/06/06 00:46:23;;;;;;;21.67;8.75;;;;;;;13.65;100.00;101883.78;5051454;28;20045;-68
2023/06/06 00:48:49;;;;;;;20.80;8.98;;;;;;;13.59;100.00;101879.31;5052220;28;20483;-72
2023/06/06 00:51:16;;;;;;;20.67;8.60;;;;;;;13.54;100.00;101884.56;5052004;28;20089;-71
2023/06/06 00:53:42;;;;;;;21.15;8.70;;;;;;;13.58;100.00;101885.47;5051793;28;20032;-69
2023/06/06 00:56:09;;;;;;;20.83;9.13;;;;;;;13.43;100.00;101878.28;5051953;28;20493;-72
2023/06/06 00:58:35;;;;;;;21.67;9.05;;;;;;;13.32;100.00;101886.09;5053564;28;20094;-68
2023/06/06 01:01:01;;;;;;;21.83;9.30;;;;;;;13.26;100.00;101880.72;5052335;28;20029;-70
2023/06/06 01:03:29;;;;;;;21.30;9.25;;;;;;;13.29;100.00;101883.41;5051904;28;20489;-70
2023/06/06 01:05:55;;;;;;;22.20;9.00;;;;;;;13.23;100.00;101888.66;5051613;28;20060;-65
2023/06/06 01:08:21;;;;;;;21.83;9.13;;;;;;;13.19;100.00;101877.16;5051600;28;20029;-66
2023/06/06 01:10:47;;;;;;;22.45;9.32;;;;;;;13.15;100.00;101883.28;5052711;28;20041;-69
2023/06/06 01:13:49;;;;;;;21.77;9.07;;;;;;;13.16;100.00;101890.34;5051849;28;20025;-64
2023/06/06 01:16:18;;;;;;;22.42;9.43;;;;;;;13.04;100.00;101887.59;5050484;28;20025;-64
2023/06/06 01:18:47;;;;;;;21.65;8.82;;;;;;;12.99;100.00;101881.31;5050899;28;20021;-65
2023/06/06 01:21:13;;;;;;;21.67;9.15;;;;;;;12.93;100.00;101881.28;5051773;28;20017;-64
2023/06/06 01:23:38;;;;;;;23.02;9.45;;;;;;;12.84;100.00;101882.06;5051700;28;20044;-64
2023/06/06 01:26:07;;;;;;;21.60;8.95;;;;;;;12.93;100.00;101883.91;5051702;28;20025;-64
2023/06/06 01:38:45;;;;;;;21.92;9.45;;;;;;;12.74;100.00;101883.69;5032485;28;20072;-70
2023/06/06 01:41:19;;;;;;;22.38;9.45;;;;;;;12.66;100.00;101885.41;5029326;28;20045;-67
2023/06/06 01:43:54;;;;;;;;;;;;;;;12.76;100.00;101878.44;5030148;28;20041;-69
2023/06/06 01:46:21;;;;;;;21.27;8.82;;;;;;;12.55;100.00;101885.25;5028851;28;20360;-68
2023/06/06 01:48:47;;;;;;;22.00;9.45;;;;;;;12.49;100.00;101883.41;5029148;28;20053;-65
2023/06/06 01:51:12;;;;;;;21.33;9.10;;;;;;;12.54;100.00;101876.41;5029383;28;20053;-70
2023/06/06 01:53:38;;;;;;;21.35;8.80;;;;;;;12.45;100.00;101881.59;5029091;28;20029;-64
2023/06/06 01:56:03;;;;;;;22.35;9.27;;;;;;;12.39;100.00;101881.50;5029565;28;20084;-64
2023/06/06 01:58:29;;;;;;;21.75;9.48;;;;;;;12.30;100.00;101884.03;5029262;28;20044;-64
2023/06/06 02:00:54;;;;;;;21.52;9.00;;;;;;;12.28;100.00;101878.72;5028428;28;20060;-64
2023/06/06 02:03:20;;;;;;;22.77;9.60;;;;;;;12.28;100.00;101881.38;5028967;28;20120;-68
2023/06/06 02:05:46;;;;;;;21.30;9.02;;;;;;;12.14;100.00;101883.81;5029097;28;20068;-64
2023/06/06 02:08:11;;;;;;;22.17;9.10;;;;;;;12.19;100.00;101882.13;5028829;28;20075;-64
2023/06/06 02:10:37;;;;;;;21.83;9.00;;;;;;;12.19;100.00;101883.91;5029743;28;20190;-64
2023/06/06 02:13:02;;;;;;;21.65;8.80;;;;;;;12.12;100.00;101882.91;5048002;28;20029;-64
2023/06/06 02:15:29;;;;;;;21.35;8.77;;;;;;;12.05;100.00;101880.16;5050712;28;20033;-65
2023/06/06 02:17:54;;;;;;;22.35;8.98;;;;;;;12.07;100.00;101881.94;5051132;28;20045;-64
2023/06/06 02:20:20;;;;;;;21.75;9.02;;;;;;;12.05;100.00;101875.72;5049735;28;20065;-64
2023/06/06 02:26:23;;;;;;;21.30;9.02;;;;;;;11.98;100.00;101876.50;5049090;28;20434;-64
2023/06/06 02:28:48;;;;;;;21.33;9.18;;;;;;;11.90;100.00;101883.41;5050727;28;20021;-65
2023/06/06 02:31:15;;;;;;;21.95;9.40;;;;;;;11.73;100.00;101884.03;5050941;28;20573;-64
2023/06/06 02:33:46;;;;;;;22.35;9.07;;;;;;;11.82;100.00;101878.91;5054436;28;20491;-64
2023/06/06 02:36:14;;;;;;;22.08;8.98;;;;;;;11.70;100.00;101878.69;5054825;28;20040;-66
2023/06/06 02:38:40;;;;;;;21.52;9.18;;;;;;;11.77;100.00;101883.22;5053581;28;20057;-64
2023/06/06 02:41:05;;;;;;;21.83;8.88;;;;;;;11.64;100.00;101882.13;5054600;28;20091;-64
2023/06/06 03:01:44;;;;;;;21.23;9.10;;;;;;;11.54;100.00;101888.16;5054226;28;20283;-64
2023/06/06 03:04:27;;;;;;;21.45;8.68;;;;;;;11.44;100.00;101887.09;5031528;28;20029;-64
2023/06/06 03:06:53;;;;;;;22.50;8.80;;;;;;;11.50;100.00;101896.91;5031136;28;20507;-64
2023/06/06 03:09:19;;;;;;;22.92;9.63;;;;;;;11.42;100.00;101891.47;5032208;28;20053;-64
2023/06/06 03:11:44;;;;;;;22.40;9.32;;;;;;;11.33;100.00;101894.84;5031759;28;20085;-65
2023/06/06 03:14:10;;;;;;;22.02;9.35;;;;;;;11.34;100.00;101894.00;5031734;28;20038;-65
2023/06/06 03:16:35;;;;;;;21.70;9.23;;;;;;;11.25;100.00;101891.16;5031267;28;20061;-64
2023/06/06 03:19:03;;;;;;;21.73;9.15;;;;;;;11.27;100.00;101894.75;5031279;28;20495;-64
2023/06/06 03:21:28;;;;;;;22.80;9.52;;;;;;;11.27;100.00;101885.91;5031576;28;20038;-64
2023/06/06 03:23:54;;;;;;;23.13;9.48;;;;;;;11.18;100.00;101896.34;5031440;28;20045;-64
2023/06/06 03:26:19;;;;;;;21.55;9.30;;;;;;;11.20;100.00;101895.50;5031546;28;20067;-64
2023/06/06 03:28:45;;;;;;;22.77;9.48;;;;;;;11.16;100.00;101891.88;5031404;28;20037;-66
2023/06/06 03:31:11;;;;;;;23.10;9.73;;;;;;;11.19;100.00;101888.41;5031484;28;20090;-64
2023/06/06 03:33:36;;;;;;;22.52;9.23;;;;;;;11.11;100.00;101890.94;5031326;28;20439;-65
2023/06/06 03:36:03;;;;;;;21.58;9.43;;;;;;;11.11;100.00;101895.31;5047323;28;20399;-67
2023/06/06 03:38:28;;;;;;;21.88;9.07;;;;;;;11.03;100.00;101887.25;5053110;28;20076;-64
2023/06/06 03:40:54;;;;;;;23.23;9.45;;;;;;;11.08;100.00;101896.16;5053418;28;20488;-64
2023/06/06 03:43:19;;;;;;;23.67;9.43;;;;;;;10.97;100.00;101888.00;5052858;28;20052;-64
2023/06/06 03:45:45;;;;;;;22.45;9.27;;;;;;;11.04;100.00;101889.03;5052527;28;20053;-65
2023/06/06 03:48:10;;;;;;;21.90;9.73;;;;;;;10.98;100.00;101891.56;5054369;28;20407;-64
2023/06/06 03:50:36;;;;;;;22.52;9.40;;;;;;;11.03;100.00;101894.28;5053531;28;20119;-64
2023/06/06 03:53:02;;;;;;;21.80;9.15;;;;;;;11.03;100.00;101897.81;5053233;28;20050;-64
2023/06/06 03:55:28;;;;;;;21.77;9.30;;;;;;;11.02;100.00;101900.44;5052990;28;20033;-64
2023/06/06 03:57:54;;;;;;;24.05;9.73;;;;;;;11.01;100.00;101894.28;5052773;28;20112;-64
2023/06/06 04:00:20;;;;;;;21.38;8.88;;;;;;;11.04;100.00;101893.41;5054668;28;20547;-64
2023/06/06 04:02:48;;;;;;;21.02;9.10;;;;;;;11.05;100.00;101900.50;5051609;28;20037;-65
2023/06/06 04:05:15;;;;;;;22.73;9.48;;;;;;;11.04;100.00;101898.69;5053217;28;20037;-64
2023/06/06 04:07:41;;;;;;;21.92;9.80;;;;;;;11.07;100.00;101894.38;5051079;28;20017;-64
2023/06/06 04:10:06;;;;;;;23.40;9.75;;;;;;;11.05;100.00;101900.50;5052710;28;20300;-64
2023/06/06 04:12:32;;;;;;;22.25;9.82;;;;;;;11.09;100.00;101894.41;5052875;28;20399;-64
2023/06/06 04:14:57;;;;;;;23.20;9.65;;;;;;;11.06;100.00;101892.59;5053127;28;20028;-63
2023/06/06 04:17:24;;;;;;;21.88;9.68;;;;;;;11.03;100.00;101897.81;5050979;28;20491;-64
2023/06/06 04:19:50;;;;;;;22.50;9.32;;;;;;;11.08;100.00;101896.16;5052902;28;20025;-64
2023/06/06 04:22:15;;;;;;;22.02;9.60;;;;;;;11.05;100.00;101896.09;5052218;28;20029;-64
2023/06/06 04:24:41;;;;;;;21.58;9.27;;;;;;;11.00;100.00;101903.06;5053440;28;20029;-65
2023/06/06 04:27:07;;;;;;;22.17;9.50;;;;;;;11.03;100.00;101897.81;5052359;28;20079;-64
2023/06/06 04:29:33;;;;;;;23.08;9.50;;;;;;;11.07;100.00;101904.09;5052655;28;20037;-66
2023/06/06 04:32:03;;;;;;;22.05;9.85;;;;;;;11.06;100.00;101903.16;5052640;28;20025;-64
2023/06/06 04:34:31;;;;;;;22.67;9.77;;;;;;;11.05;100.00;101906.66;5052490;28;20033;-64
2023/06/06 04:37:03;;;;;;;21.92;9.57;;;;;;;11.05;100.00;101908.44;5051742;28;20032;-64
2023/06/06 04:39:29;;;;;;;22.90;9.57;;;;;;;11.08;100.00;101898.81;5052178;28;20075;-64
2023/06/06 04:41:56;;;;;;;22.60;9.82;;;;;;;11.16;100.00;101904.25;5052663;28;20032;-64
2023/06/06 04:44:22;;;;;;;24.73;9.95;;;;;;;11.20;100.00;101910.47;5051654;28;20029;-64
2023/06/06 04:46:48;;;;;;;22.23;10.15;;;;;;;11.17;100.00;101900.75;5051793;28;20071;-64
2023/06/06 04:49:15;;;;;;;21.75;9.65;;;;;;;11.22;100.00;101899.06;5053124;28;20020;-64
2023/06/06 04:51:44;;;;;;;23.33;10.13;;;;;;;11.29;100.00;101900.06;5049343;28;20051;-64
2023/06/06 04:54:10;;;;;;;24.27;10.05;;;;;;;11.29;100.00;101897.44;5052047;28;20545;-64
2023/06/06 04:56:38;;;;;;;23.15;9.80;;;;;;;11.33;100.00;101900.16;5050223;28;20033;-68
2023/06/06 04:59:07;;;;;;;22.65;9.85;;;;;;;11.37;100.00;101898.44;5052028;28;20063;-68
2023/06/06 05:01:36;;;;;;;23.02;9.77;;;;;;;11.31;100.00;101898.34;5050575;28;20434;-73
2023/06/06 05:04:03;;;;;;;23.25;10.15;;;;;;;11.33;100.00;101893.97;5051309;28;20479;-68
2023/06/06 05:06:31;;;;;;;22.17;9.82;;;;;;;11.43;100.00;101892.34;5051323;28;20083;-67
2023/06/06 05:09:06;;;;;;;24.25;9.85;;;;;;;11.47;100.00;101900.38;5052070;28;20037;-73
2023/06/06 05:11:31;;;;;;;23.23;10.50;;;;;;;11.46;100.00;101903.91;5051538;28;20037;-68
2023/06/06 05:13:57;;;;;;;22.92;10.23;;;;;;;11.57;100.00;101905.84;5052262;28;20364;-68
2023/06/06 05:16:22;;;;;;;23.10;10.43;;;;;;;11.56;100.00;101904.06;5051714;28;20047;-69
2023/06/06 05:18:48;;;;;;;22.60;10.15;;;;;;;11.59;100.00;101898.81;5050926;28;20545;-67
2023/06/06 05:21:18;;;;;;;22.60;10.05;;;;;;;11.66;100.00;101906.00;5051963;28;20035;-71
2023/06/06 05:23:43;;;;;;;23.02;9.98;;;;;;;11.62;100.00;101898.84;5053097;28;20106;-69
2023/06/06 05:26:09;;;;;;;22.65;9.95;;;;;;;11.65;100.00;101899.81;5051595;28;20061;-70
2023/06/06 05:28:34;;;;;;;23.83;9.98;;;;;;;11.71;100.00;101909.63;5051203;28;20079;-71
2023/06/06 05:31:00;;;;;;;21.52;9.55;;;;;;;11.70;100.00;101905.19;5051465;28;20041;-71
2023/06/06 05:33:26;;;;;;;22.73;9.95;;;;;;;11.78;100.00;101906.22;5051728;28;20032;-69
2023/06/06 05:35:53;;;;;;;22.58;10.63;;;;;;;11.79;100.00;101907.09;5054288;28;20040;-71
2023/06/06 05:38:19;;;;;;;22.85;10.30;;;;;;;11.82;100.00;101910.69;5051310;28;20490;-70
2023/06/06 05:40:45;;;;;;;23.27;10.25;;;;;;;11.91;100.00;101912.59;5050870;28;20049;-67
2023/06/06 05:43:10;;;;;;;23.50;10.20;;;;;;;11.95;100.00;101913.56;5051694;28;20033;-68
2023/06/06 05:45:35;;;;;;;22.00;9.88;;;;;;;12.00;100.00;101911.91;5051479;28;20025;-66
2023/06/06 05:48:01;;;;;;;26.15;10.07;;;;;;;12.09;100.00;101916.44;5050910;28;20037;-64
2023/06/06 05:50:26;;;;;;;24.67;10.60;;;;;;;12.15;100.00;101911.22;5051650;28;20025;-64
2023/06/06 05:52:52;;;;;;;24.23;10.13;;;;;;;12.20;100.00;101920.13;5050292;28;20490;-66
2023/06/06 05:55:28;;;;;;;23.77;10.35;;;;;;;12.20;100.00;101915.72;5051391;28;20075;-66
2023/06/06 05:57:55;;;;;;;21.98;9.88;;;;;;;12.29;100.00;101916.72;5049000;28;20117;-65
2023/06/06 06:00:21;;;;;;;22.80;10.23;;;;;;;12.26;100.00;101914.03;5050834;28;20484;-66
2023/06/06 06:02:47;;;;;;;23.25;10.50;;;;;;;12.29;100.00;101922.00;5050841;28;20503;-65
2023/06/06 06:05:12;;;;;;;23.38;10.57;;;;;;;12.20;100.00;101913.06;5051165;28;20029;-63
2023/06/06 06:07:39;;;;;;;23.23;10.30;;;;;;;12.25;100.00;101918.44;5052364;28;20107;-63
2023/06/06 06:10:05;;;;;;;22.58;10.20;;;;;;;12.30;100.00;101906.13;5055143;28;20033;-64
2023/06/06 06:12:30;;;;;;;23.08;9.93;;;;;;;12.34;100.00;101907.94;5050667;28;20033;-63
2023/06/06 06:14:56;;;;;;;23.23;10.18;;;;;;;12.41;100.00;101908.94;5054825;28;20044;-63
2023/06/06 06:17:22;;;;;;;22.15;10.35;;;;;;;12.47;100.00;101914.31;5054058;28;20368;-64
2023/06/06 06:19:47;;;;;;;22.90;10.30;;;;;;;12.55;100.00;101910.03;5055100;28;20083;-65
2023/06/06 06:22:13;;;;;;;23.27;10.73;;;;;;;12.65;100.00;101918.97;5054731;28;20057;-63
2023/06/06 06:24:38;;;;;;;23.30;10.30;;;;;;;12.69;100.00;101920.78;5053243;28;20040;-62
2023/06/06 06:27:04;;;;;;;24.90;10.88;;;;;;;12.73;100.00;101921.75;5054235;28;20086;-62
2023/06/06 06:29:29;;;;;;;24.77;10.63;;;;;;;12.78;100.00;101924.44;5054460;28;20033;-63
2023/06/06 06:31:55;;;;;;;21.88;9.98;;;;;;;12.86;100.00;101928.09;5054771;28;20038;-63
2023/06/06 06:34:20;;;;;;;24.30;10.52;;;;;;;12.90;100.00;101925.50;5054353;28;20504;-62
2023/06/06 06:36:45;;;;;;;23.25;10.40;;;;;;;12.98;100.00;101930.00;5052623;28;20495;-64
2023/06/06 06:39:17;;;;;;;23.27;10.43;;;;;;;13.06;100.00;101933.59;5054711;28;20049;-62
2023/06/06 06:41:43;;;;;;;22.67;10.30;;;;;;;13.15;100.00;101928.44;5054772;28;20464;-64
2023/06/06 06:44:08;;;;;;;23.08;10.38;;;;;;;13.22;100.00;101930.28;5054336;28;20036;-64
2023/06/06 06:46:33;;;;;;;23.50;9.93;;;;;;;13.28;100.00;101925.88;5053676;28;20512;-65
2023/06/06 06:48:59;;;;;;;23.08;10.38;;;;;;;13.30;100.00;101929.47;5056362;28;20107;-65
2023/06/06 06:51:24;;;;;;;22.80;10.30;;;;;;;13.32;100.00;101933.88;5054396;28;20029;-64
2023/06/06 06:53:51;;;;;;;23.67;10.38;;;;;;;13.37;100.00;101936.66;5054418;28;20031;-64
2023/06/06 06:56:17;;;;;;;23.15;10.30;;;;;;;13.40;100.00;101937.56;5054101;28;20025;-64
2023/06/06 06:58:42;;;;;;;22.90;10.73;;;;;;;13.47;100.00;101937.63;5053793;28;20036;-64
2023/06/06 07:01:08;;;;;;;23.25;10.90;;;;;;;13.57;100.00;101932.41;5054678;28;20435;-65
2023/06/06 07:03:34;;;;;;;23.15;10.60;;;;;;;13.60;100.00;101935.09;5054116;28;20107;-65
2023/06/06 07:06:00;;;;;;;24.50;11.13;;;;;;;13.69;100.00;101936.03;5054074;28;20115;-64
2023/06/06 07:08:25;;;;;;;24.10;10.75;;;;;;;13.82;100.00;101937.94;5053613;28;20037;-65
2023/06/06 07:10:51;;;;;;;23.48;10.68;;;;;;;13.92;100.00;101934.47;5053948;28;20033;-66
2023/06/06 07:13:18;;;;;;;22.92;9.98;;;;;;;14.02;100.00;101934.53;5055166;28;20403;-66
2023/06/06 07:15:43;;;;;;;22.63;10.48;;;;;;;14.08;100.00;101937.25;5054015;28;20037;-64
2023/06/06 07:18:09;;;;;;;22.75;9.82;;;;;;;14.19;100.00;101935.56;5053448;28;20036;-64
2023/06/06 07:20:34;;;;;;;24.33;10.63;;;;;;;14.22;100.00;101935.56;5053956;28;20112;-65
2023/06/06 07:23:00;;;;;;;23.02;9.88;;;;;;;14.32;100.00;101925.88;5051243;28;20495;-64
2023/06/06 07:25:25;;;;;;;22.52;10.15;;;;;;;14.42;100.00;101937.47;5052829;28;20075;-64
2023/06/06 07:27:51;;;;;;;23.35;10.68;;;;;;;14.51;100.00;101933.97;5051656;28;20100;-63
2023/06/06 07:30:16;;;;;;;22.92;10.23;;;;;;;14.62;100.00;101929.59;5052037;28;20055;-63
2023/06/06 07:32:44;;;;;;;24.15;10.50;;;;;;;14.75;100.00;101926.16;5052787;28;20377;-63
2023/06/06 07:35:19;;;;;;;22.77;10.20;;;;;;;14.81;100.00;101925.28;5053432;28;20029;-64
2023/06/06 07:37:44;;;;;;;22.75;10.13;;;;;;;14.93;100.00;101927.09;5052208;28;20036;-63
2023/06/06 07:40:11;;;;;;;23.38;10.30;;;;;;;15.02;100.00;101928.91;5053242;28;20045;-66
2023/06/06 07:42:37;;;;;;;22.15;10.05;;;;;;;15.11;100.00;101929.78;5053440;28;20052;-66
2023/06/06 07:45:06;;;;;;;24.77;10.32;;;;;;;15.24;100.00;101919.19;5053625;28;20059;-64
2023/06/06 07:47:32;;;;;;;22.38;9.75;;;;;;;15.28;100.00;101921.84;5052488;28;20507;-64
2023/06/06 07:49:57;;;;;;;23.02;10.20;;;;;;;15.45;100.00;101918.31;5053470;28;20025;-64
2023/06/06 07:52:23;;;;;;;22.63;10.23;;;;;;;15.57;100.00;101921.00;5053394;28;20021;-63
2023/06/06 07:54:48;;;;;;;23.35;10.25;;;;;;;15.71;100.00;101904.13;5052934;28;20037;-64
2023/06/06 07:57:16;;;;;;;22.10;10.05;;;;;;;15.84;100.00;101911.25;5053206;28;20052;-63
2023/06/06 07:59:45;;;;;;;22.33;9.90;;;;;;;15.96;100.00;101918.34;5046592;28;20032;-63
2023/06/06 08:02:14;;;;;;;22.40;9.82;;;;;;;16.08;100.00;101914.81;5055859;28;20106;-64
2023/06/06 08:04:41;;;;;;;22.75;9.88;;;;;;;16.23;100.00;101909.44;5052781;28;20079;-64
2023/06/06 08:07:07;;;;;;;22.98;10.20;;;;;;;16.42;100.00;101907.59;5052772;28;20029;-70
2023/06/06 08:09:32;;;;;;;23.02;10.27;;;;;;;16.54;100.00;101904.00;5052931;28;20036;-67
2023/06/06 08:11:58;;;;;;;22.85;10.05;;;;;;;16.60;100.00;101903.09;5049991;28;20103;-64
2023/06/06 08:14:23;;;;;;;21.88;9.80;;;;;;;16.71;100.00;101907.47;5051379;28;20080;-64
2023/06/06 08:16:49;;;;;;;23.05;10.05;;;;;;;16.80;100.00;101916.34;5049872;28;20029;-64
2023/06/06 08:19:14;;;;;;;21.83;9.60;;;;;;;16.88;100.00;101907.44;5051190;28;20837;-63
2023/06/06 08:21:39;;;;;;;21.98;9.45;;;;;;;17.02;100.00;101910.06;5047688;28;20029;-64
2023/06/06 08:24:05;;;;;;;22.75;9.40;;;;;;;17.16;100.00;101911.75;5050239;28;20369;-64
2023/06/06 08:26:30;;;;;;;22.23;9.05;;;;;;;17.33;100.00;101912.53;5049073;28;20031;-63
2023/06/06 08:28:55;;;;;;;22.05;9.68;;;;;;;17.45;100.00;101906.22;5051415;28;20036;-66
2023/06/06 08:31:23;;;;;;;22.55;9.82;;;;;;;17.58;100.00;101905.22;5051129;28;20055;-65
2023/06/06 08:33:48;;;;;;;22.00;9.82;;;;;;;17.70;100.00;101908.69;5048118;28;20111;-66
2023/06/06 08:36:13;;;;;;;22.35;9.30;;;;;;;17.88;100.00;101904.94;5051040;28;20115;-65
2023/06/06 08:38:39;;;;;;;23.77;9.80;;;;;;;18.03;100.00;101903.97;5048675;28;20388;-65
2023/06/06 08:41:05;;;;;;;22.95;9.35;;;;;;;18.14;100.00;101904.72;5051190;28;20164;-65
2023/06/06 08:43:36;;;;;;;22.60;9.60;;;;;;;18.18;98.50;101909.16;5049154;28;20029;-63
2023/06/06 08:46:02;;;;;;;21.67;9.15;;;;;;;18.34;99.00;101912.56;5049558;28;20025;-63
2023/06/06 08:48:29;;;;;;;22.50;9.20;;;;;;;18.56;98.10;101915.84;5048347;28;20037;-63
2023/06/06 08:51:00;;;;;;;23.98;9.60;;;;;;;18.79;90.94;101912.03;5052664;28;20115;-64
2023/06/06 08:53:26;;;;;;;22.90;9.43;;;;;;;18.82;90.34;101911.97;5047173;28;20035;-65
2023/06/06 08:55:55;;;;;;;20.65;8.95;;;;;;;19.06;92.41;101913.47;5048966;28;20407;-65
2023/06/06 08:58:21;;;;;;;20.92;8.68;;;;;;;19.22;87.49;101911.47;5048928;28;20067;-65
2023/06/06 09:00:49;;;;;;;22.05;9.15;;;;;;;19.30;83.57;101909.53;5051094;28;20029;-64
2023/06/06 09:03:15;;;;;;;22.02;9.10;;;;;;;19.40;86.32;101906.72;5051211;28;20033;-64
2023/06/06 09:05:42;;;;;;;21.85;9.50;;;;;;;19.54;83.61;101896.63;5049134;28;20064;-63
2023/06/06 09:08:07;;;;;;;21.38;9.00;;;;;;;19.72;81.92;101902.59;5049808;28;20021;-64
2023/06/06 09:10:33;;;;;;;23.30;9.20;;;;;;;19.97;82.08;101900.44;5051771;28;20442;-64
2023/06/06 09:12:58;;;;;;;21.55;9.38;;;;;;;20.17;81.52;101892.88;5051950;28;20068;-64
2023/06/06 09:15:25;;;;;;;22.35;8.82;;;;;;;20.41;78.84;101903.19;5051791;28;20032;-64
2023/06/06 09:17:54;;;;;;;21.80;8.95;;;;;;;20.60;75.39;101898.31;5051696;28;20083;-65
2023/06/06 09:20:22;;;;;;;23.15;9.18;;;;;;;20.68;70.89;101904.44;5051547;28;20115;-63
2023/06/06 09:22:49;;;;;;;22.60;9.27;;;;;;;20.65;71.37;101904.44;5050999;28;20537;-64
2023/06/06 09:25:20;;;;;;;20.77;8.65;;;;;;;20.78;70.38;101902.44;5051999;28;20025;-65
2023/06/06 09:27:47;;;;;;;21.52;8.15;;;;;;;20.80;72.18;101900.63;5052706;28;20033;-65
2023/06/06 09:30:23;;;;;;;22.17;9.00;;;;;;;20.97;69.45;101894.84;5049337;28;20087;-65
2023/06/06 09:32:53;;;;;;;21.35;8.57;;;;;;;21.12;67.90;101891.81;5049745;28;20040;-63
2023/06/06 09:35:20;;;;;;;21.92;8.48;;;;;;;21.33;68.33;101887.72;5051340;28;20032;-63
2023/06/06 09:37:46;;;;;;;20.73;8.50;;;;;;;21.53;66.12;101887.25;5050841;28;20082;-63
2023/06/06 09:40:16;;;;;;;22.40;8.25;;;;;;;21.65;64.91;101896.81;5051335;28;20443;-64
2023/06/06 09:42:44;;;;;;;19.90;7.97;;;;;;;21.70;64.58;101888.66;5050589;28;20067;-65
2023/06/06 09:45:20;;;;;;;22.30;9.23;;;;;;;21.80;64.45;101887.50;5056015;28;20029;-65
2023/06/06 09:47:47;;;;;;;23.10;8.73;;;;;;;22.07;63.78;101884.97;5052372;28;20039;-65
2023/06/06 09:50:15;;;;;;;21.92;8.43;;;;;;;22.32;62.95;101895.06;5051756;28;20468;-66
2023/06/06 09:52:41;;;;;;;21.00;8.43;;;;;;;22.59;61.63;101891.59;5055767;28;20046;-65
2023/06/06 09:55:08;;;;;;;19.85;7.80;;;;;;;22.78;61.04;101888.38;5055329;28;20111;-65
2023/06/06 09:57:36;;;;;;;20.75;8.00;;;;;;;22.87;57.89;101889.91;5055072;28;20040;-66
2023/06/06 10:00:12;;;;;;;20.38;8.63;;;;;;;22.97;57.57;101884.16;5055314;28;20460;-65
2023/06/06 10:02:48;;;;;;;20.10;7.93;;;;;;;23.77;57.15;101880.69;5055057;28;20029;-66
2023/06/06 10:05:15;;;;;;;20.73;8.25;;;;;;;25.33;52.26;101879.41;5052722;28;20504;-76
2023/06/06 10:07:46;;;;;;;20.98;7.40;;;;;;;27.05;46.81;101887.06;5054728;28;20701;-74
2023/06/06 10:10:13;;;;;;;20.92;7.60;;;;;;;28.66;41.89;101879.72;5053743;28;20029;-74
2023/06/06 10:12:40;;;;;;;20.58;7.65;;;;;;;29.86;39.51;101874.59;5050628;28;20108;-77
2023/06/06 10:15:08;;;;;;;20.42;7.22;;;;;;;30.75;36.56;101880.88;5052729;28;20043;-65
2023/06/06 10:17:40;;;;;;;19.67;7.47;;;;;;;31.38;35.59;101882.22;5049978;28;20037;-69
2023/06/06 10:20:07;;;;;;;20.38;7.50;;;;;;;32.11;32.81;101879.94;5053330;28;20083;-74
2023/06/06 10:22:36;;;;;;;19.35;7.30;;;;;;;32.54;33.37;101874.16;5054043;28;20029;-71
2023/06/06 10:25:06;;;;;;;20.33;7.13;;;;;;;32.83;32.04;101877.50;5051577;28;20024;-73
2023/06/06 10:27:44;;;;;;;20.15;7.28;;;;;;;33.25;32.24;101881.78;5054037;28;20032;-66
2023/06/06 10:30:24;;;;;;;20.67;6.95;;;;;;;33.04;31.71;101876.03;5054087;28;20024;-66
2023/06/06 10:33:18;;;;;;;20.35;7.63;;;;;;;33.53;31.94;101880.53;5053789;28;20372;-65
2023/06/06 10:35:47;;;;;;;19.25;7.03;;;;;;;33.30;30.66;101880.44;5054598;28;20029;-66
2023/06/06 10:38:13;;;;;;;18.60;6.60;;;;;;;33.15;30.02;101882.44;5053139;28;20063;-76
2023/06/06 10:41:00;;;;;;;18.50;6.50;;;;;;;33.67;31.36;101877.59;5054051;28;20044;-75
2023/06/06 10:43:34;;;;;;;19.50;6.57;;;;;;;33.76;30.59;101869.69;5054240;28;20039;-72
2023/06/06 10:46:03;;;;;;;19.55;6.63;;;;;;;34.04;29.30;101873.84;5054654;28;20083;-73
2023/06/06 10:48:38;;;;;;;18.83;6.40;;;;;;;34.53;29.42;101869.91;5053681;28;20025;-72
2023/06/06 10:51:04;;;;;;;18.73;6.78;;;;;;;34.48;28.72;101866.66;5050156;28;20057;-72
2023/06/06 10:53:30;;;;;;;18.67;6.20;;;;;;;34.49;28.70;101868.41;5052625;28;20454;-77
2023/06/06 10:55:56;;;;;;;18.05;6.13;;;;;;;34.53;28.59;101856.19;5054516;28;20140;-78
2023/06/06 10:58:24;;;;;;;18.58;6.90;;;;;;;34.30;28.53;101863.56;5053674;28;20393;-76
2023/06/06 11:00:56;;;;;;;19.10;6.40;;;;;;;33.39;29.78;101861.53;5054052;28;20040;-78
2023/06/06 11:03:41;;;;;;;21.00;6.72;;;;;;;32.16;32.04;101855.94;5053802;28;20104;-78
2023/06/06 11:06:07;;;;;;;17.83;6.32;;;;;;;31.11;31.64;101854.91;5052749;28;20383;-77
2023/06/06 11:08:56;;;;;;;17.65;5.80;;;;;;;30.96;32.99;101856.78;5054064;28;20083;-68
2023/06/06 11:11:32;;;;;;;18.85;6.65;;;;;;;30.46;34.61;101847.31;5052751;28;20570;-76
2023/06/06 11:14:00;;;;;;;19.02;6.50;;;;;;;30.04;34.03;101842.63;5053655;28;20025;-77
2023/06/06 11:16:50;;;;;;;21.23;6.40;;;;;;;29.98;34.80;101834.81;5053652;28;20059;-66
2023/06/06 11:19:21;;;;;;;19.08;6.07;;;;;;;30.24;34.63;101835.88;5053726;28;20024;-66
2023/06/06 11:21:49;;;;;;;17.42;6.22;;;;;;;29.81;33.90;101837.66;5053693;28;20031;-65
2023/06/06 11:24:16;;;;;;;18.38;6.22;;;;;;;29.05;35.34;101831.25;5053556;28;20087;-67
2023/06/06 11:26:42;;;;;;;18.02;6.10;;;;;;;28.66;36.47;101840.75;5051125;28;20112;-66
2023/06/06 11:29:10;;;;;;;17.20;5.80;;;;;;;28.95;36.80;101832.75;5053593;28;20021;-66
2023/06/06 11:31:36;;;;;;;17.90;5.95;;;;;;;28.89;35.75;101830.41;5054114;28;20045;-65
2023/06/06 11:34:12;;;;;;;19.13;5.72;;;;;;;28.96;36.86;101829.94;5053483;28;20488;-66
2023/06/06 11:36:39;;;;;;;19.00;6.60;;;;;;;29.15;36.55;101832.47;5052801;28;20357;-66
2023/06/06 11:39:07;;;;;;;19.85;6.63;;;;;;;29.02;36.12;101823.28;5052929;28;20504;-65
2023/06/06 11:41:39;;;;;;;18.88;6.15;;;;;;;29.15;37.58;101824.28;5053932;28;20033;-65